St Pete Beach, Florida
Current Conditions -  °F | °C
As of 6:01 PM on Tuesday 25 Nov 2014 (Local Time) from KSPG Reporting Station
Light Rain Light Rain  
Wind Chill: 74°   Ceiling: 2800
Heat Index: 74°   Visibility: 9mi
Dew Point: 72°   Wind: 14mph
Humidity: 93%   Direction: 210°SSW
Pressure: 29.87"   Gusts: NA
Location:  27.7426°N, 82.7481°W
Report Text: KSPG 252301Z 21012KT 9SM -RA FEW007 SCT013 OVC028 23/22 A2987 RMK AO2 LTG DSNT W-N P0000 T02330222
Loading
Personal Weather Stations






























Interactive Weather Map New forecast layout! Learn more

10-Day Weather Forecast

Advertisements
Track Severe Weather on mobile